SFJ101 WSSS-VTSM
Flight info
| Callsign | SFJ101 |
|---|---|
| Flight time | N/A |
| Altitude | 36000 |
| Route | VMR6A VMR B469 VPK M751 VKB M626 IKOGA Y95 RUMVA |
| Aircraft | A320/M-SDE3FGHIRWY/LB1 |
Departure
| Time | N/A |
|---|---|
| Airport | Singapore Changi Airport (WSSS) |
Arrival
| Time | 2026-05-09 03:26 |
|---|---|
| Airport | Samui International Airport (VTSM) |
| Time | Latitude | Longitude | Altitude | Speed | Heading |
|---|---|---|---|---|---|
| 2026-05-09 02:32 | 5.49614 | 102.58125 | 35937 ft | 445 kts | 340° |
| 2026-05-09 02:33 | 5.55366 | 102.55829 | 35932 ft | 445 kts | 340° |
| 2026-05-09 02:33 | 5.61110 | 102.53531 | 35928 ft | 445 kts | 340° |
| 2026-05-09 02:34 | 5.66856 | 102.51230 | 35923 ft | 444 kts | 340° |
| 2026-05-09 02:34 | 5.72601 | 102.48938 | 35925 ft | 445 kts | 340° |
| 2026-05-09 02:35 | 5.78350 | 102.46639 | 35926 ft | 444 kts | 340° |
| 2026-05-09 02:35 | 5.84094 | 102.44340 | 35922 ft | 445 kts | 340° |
| 2026-05-09 02:36 | 5.89803 | 102.42056 | 35922 ft | 445 kts | 340° |
| 2026-05-09 02:36 | 5.95551 | 102.39753 | 35922 ft | 444 kts | 340° |
| 2026-05-09 02:37 | 6.01293 | 102.37456 | 35928 ft | 444 kts | 340° |
| 2026-05-09 02:37 | 6.07027 | 102.35161 | 35932 ft | 443 kts | 340° |
| 2026-05-09 02:38 | 6.12750 | 102.32862 | 35932 ft | 443 kts | 340° |
| 2026-05-09 02:38 | 6.18400 | 102.30376 | 35932 ft | 444 kts | 335° |
| 2026-05-09 02:39 | 6.23900 | 102.27547 | 35932 ft | 444 kts | 335° |
| 2026-05-09 02:39 | 6.29395 | 102.24727 | 35929 ft | 444 kts | 335° |
| 2026-05-09 02:40 | 6.34860 | 102.21921 | 35916 ft | 444 kts | 334° |
| 2026-05-09 02:40 | 6.40359 | 102.19089 | 35916 ft | 444 kts | 334° |
| 2026-05-09 02:41 | 6.45870 | 102.16251 | 35914 ft | 445 kts | 334° |
| 2026-05-09 02:41 | 6.51343 | 102.13433 | 35915 ft | 445 kts | 334° |
| 2026-05-09 02:42 | 6.56856 | 102.10594 | 35923 ft | 445 kts | 334° |
| 2026-05-09 02:42 | 6.62369 | 102.07757 | 35923 ft | 445 kts | 334° |
| 2026-05-09 02:43 | 6.67882 | 102.04920 | 35922 ft | 445 kts | 334° |
| 2026-05-09 02:43 | 6.73399 | 102.02083 | 35911 ft | 446 kts | 334° |
| 2026-05-09 02:44 | 6.78931 | 101.99239 | 35907 ft | 447 kts | 334° |
| 2026-05-09 02:44 | 6.84463 | 101.96384 | 35913 ft | 447 kts | 334° |
| 2026-05-09 02:45 | 6.90007 | 101.93527 | 35921 ft | 448 kts | 334° |
| 2026-05-09 02:45 | 6.95513 | 101.90691 | 35922 ft | 448 kts | 334° |
| 2026-05-09 02:46 | 7.01064 | 101.87836 | 35926 ft | 448 kts | 334° |
| 2026-05-09 02:46 | 7.06615 | 101.84975 | 35928 ft | 448 kts | 334° |
| 2026-05-09 02:47 | 7.12156 | 101.82111 | 35944 ft | 447 kts | 334° |
| 2026-05-09 02:47 | 7.17682 | 101.79259 | 35953 ft | 446 kts | 334° |
| 2026-05-09 02:48 | 7.23192 | 101.76412 | 35948 ft | 445 kts | 334° |
| 2026-05-09 02:48 | 7.27769 | 101.74049 | 35947 ft | 444 kts | 334° |
| 2026-05-09 02:49 | 7.33270 | 101.71213 | 35944 ft | 444 kts | 334° |
| 2026-05-09 02:49 | 7.38764 | 101.68370 | 35943 ft | 444 kts | 334° |
| 2026-05-09 02:50 | 7.44254 | 101.65533 | 35952 ft | 443 kts | 334° |
| 2026-05-09 02:50 | 7.49739 | 101.62700 | 35945 ft | 443 kts | 334° |
| 2026-05-09 02:51 | 7.55218 | 101.59863 | 35944 ft | 443 kts | 334° |
| 2026-05-09 02:51 | 7.60700 | 101.57032 | 35942 ft | 443 kts | 334° |
| 2026-05-09 02:52 | 7.66136 | 101.54116 | 35942 ft | 443 kts | 327° |
| 2026-05-09 02:52 | 7.70977 | 101.50402 | 35941 ft | 444 kts | 323° |
| 2026-05-09 02:53 | 7.75862 | 101.46595 | 35942 ft | 444 kts | 323° |
| 2026-05-09 02:53 | 7.80722 | 101.42815 | 35945 ft | 444 kts | 323° |
| 2026-05-09 02:54 | 7.85576 | 101.39027 | 35944 ft | 444 kts | 323° |
| 2026-05-09 02:54 | 7.90462 | 101.35209 | 35947 ft | 444 kts | 323° |
| 2026-05-09 02:55 | 7.95344 | 101.31401 | 35946 ft | 444 kts | 323° |
| 2026-05-09 02:55 | 8.00234 | 101.27587 | 35945 ft | 444 kts | 323° |
| 2026-05-09 02:56 | 8.05126 | 101.23766 | 35730 ft | 445 kts | 323° |
| 2026-05-09 02:56 | 8.07563 | 101.21861 | 35250 ft | 442 kts | 323° |
| 2026-05-09 02:56 | 8.09988 | 101.19966 | 34707 ft | 440 kts | 323° |
| 2026-05-09 02:56 | 8.12398 | 101.18079 | 34170 ft | 438 kts | 323° |
| 2026-05-09 02:57 | 8.14804 | 101.16200 | 33597 ft | 437 kts | 323° |
| 2026-05-09 02:57 | 8.17197 | 101.14333 | 33063 ft | 434 kts | 323° |
| 2026-05-09 02:57 | 8.19574 | 101.12472 | 32528 ft | 431 kts | 323° |
| 2026-05-09 02:57 | 8.21934 | 101.10622 | 32010 ft | 429 kts | 323° |
| 2026-05-09 02:58 | 8.24283 | 101.08781 | 31491 ft | 427 kts | 324° |
| 2026-05-09 02:58 | 8.26624 | 101.06947 | 30978 ft | 425 kts | 323° |
| 2026-05-09 02:58 | 8.28954 | 101.05123 | 30480 ft | 423 kts | 324° |
| 2026-05-09 02:58 | 8.31274 | 101.03307 | 29982 ft | 421 kts | 324° |
| 2026-05-09 02:59 | 8.33556 | 101.01523 | 29452 ft | 419 kts | 324° |
| 2026-05-09 02:59 | 8.35848 | 100.99729 | 28978 ft | 415 kts | 324° |
| 2026-05-09 02:59 | 8.38120 | 100.97951 | 28518 ft | 411 kts | 324° |
| 2026-05-09 02:59 | 8.40369 | 100.96191 | 28056 ft | 408 kts | 324° |
| 2026-05-09 03:00 | 8.42601 | 100.94442 | 27598 ft | 405 kts | 324° |
| 2026-05-09 03:00 | 8.44823 | 100.92701 | 27144 ft | 402 kts | 324° |
| 2026-05-09 03:00 | 8.47028 | 100.90975 | 26682 ft | 400 kts | 324° |
| 2026-05-09 03:00 | 8.49219 | 100.89260 | 26226 ft | 398 kts | 324° |
| 2026-05-09 03:01 | 8.51403 | 100.87551 | 25745 ft | 397 kts | 324° |
| 2026-05-09 03:01 | 8.53585 | 100.85845 | 25259 ft | 395 kts | 324° |
| 2026-05-09 03:01 | 8.55757 | 100.84144 | 24765 ft | 395 kts | 324° |
| 2026-05-09 03:01 | 8.57922 | 100.82448 | 24274 ft | 394 kts | 324° |
| 2026-05-09 03:02 | 8.60090 | 100.80750 | 23763 ft | 394 kts | 324° |
| 2026-05-09 03:02 | 8.62256 | 100.79052 | 23213 ft | 394 kts | 324° |
| 2026-05-09 03:02 | 8.64418 | 100.77356 | 22704 ft | 392 kts | 323° |
| 2026-05-09 03:02 | 8.66566 | 100.75670 | 22193 ft | 390 kts | 323° |
| 2026-05-09 03:03 | 8.68703 | 100.73993 | 21714 ft | 388 kts | 323° |
| 2026-05-09 03:03 | 8.70827 | 100.72325 | 21228 ft | 386 kts | 323° |
| 2026-05-09 03:03 | 8.72943 | 100.70668 | 20745 ft | 384 kts | 324° |
| 2026-05-09 03:03 | 8.75050 | 100.69019 | 20269 ft | 382 kts | 324° |
| 2026-05-09 03:04 | 8.77148 | 100.67375 | 19801 ft | 381 kts | 323° |
| 2026-05-09 03:04 | 8.79237 | 100.65736 | 19336 ft | 380 kts | 323° |
| 2026-05-09 03:04 | 8.81322 | 100.64100 | 18867 ft | 379 kts | 323° |
| 2026-05-09 03:04 | 8.83400 | 100.62470 | 18466 ft | 376 kts | 323° |
| 2026-05-09 03:05 | 8.85461 | 100.60854 | 17975 ft | 375 kts | 323° |
| 2026-05-09 03:05 | 8.87508 | 100.59247 | 17486 ft | 373 kts | 323° |
| 2026-05-09 03:05 | 8.89523 | 100.57663 | 17001 ft | 360 kts | 323° |
| 2026-05-09 03:05 | 8.91430 | 100.56160 | 16591 ft | 345 kts | 323° |
| 2026-05-09 03:06 | 8.93288 | 100.54695 | 16181 ft | 333 kts | 324° |
| 2026-05-09 03:06 | 8.95081 | 100.53279 | 15818 ft | 321 kts | 324° |
| 2026-05-09 03:06 | 8.96812 | 100.51912 | 15447 ft | 311 kts | 324° |
| 2026-05-09 03:06 | 8.98506 | 100.50572 | 15086 ft | 308 kts | 324° |
| 2026-05-09 03:07 | 9.00189 | 100.49244 | 14746 ft | 305 kts | 324° |
| 2026-05-09 03:07 | 9.01863 | 100.47923 | 14688 ft | 305 kts | 324° |
| 2026-05-09 03:07 | 9.03545 | 100.46599 | 14624 ft | 306 kts | 324° |
| 2026-05-09 03:07 | 9.05223 | 100.45279 | 14563 ft | 306 kts | 324° |
| 2026-05-09 03:08 | 9.06905 | 100.43955 | 14501 ft | 305 kts | 324° |
| 2026-05-09 03:08 | 9.08577 | 100.42634 | 14445 ft | 305 kts | 324° |
| 2026-05-09 03:08 | 9.10249 | 100.41313 | 14386 ft | 305 kts | 324° |
| 2026-05-09 03:08 | 9.11919 | 100.39996 | 14325 ft | 305 kts | 324° |
| 2026-05-09 03:09 | 9.13592 | 100.38677 | 14257 ft | 304 kts | 324° |
| 2026-05-09 03:09 | 9.15261 | 100.37364 | 14200 ft | 304 kts | 324° |
| 2026-05-09 03:09 | 9.16930 | 100.36051 | 14138 ft | 304 kts | 324° |
| 2026-05-09 03:09 | 9.18596 | 100.34738 | 14077 ft | 303 kts | 324° |
| 2026-05-09 03:10 | 9.20256 | 100.33425 | 14022 ft | 303 kts | 324° |
| 2026-05-09 03:10 | 9.21896 | 100.32125 | 13963 ft | 303 kts | 324° |
| 2026-05-09 03:10 | 9.23556 | 100.30811 | 13903 ft | 303 kts | 324° |
| 2026-05-09 03:10 | 9.25212 | 100.29502 | 13844 ft | 302 kts | 324° |
| 2026-05-09 03:11 | 9.26882 | 100.28206 | 13777 ft | 301 kts | 329° |
| 2026-05-09 03:11 | 9.28760 | 100.27336 | 13720 ft | 296 kts | 348° |
| 2026-05-09 03:11 | 9.30782 | 100.27020 | 13650 ft | 293 kts | 1° |
| 2026-05-09 03:11 | 9.32800 | 100.27125 | 13582 ft | 290 kts | 11° |
| 2026-05-09 03:12 | 9.34802 | 100.27390 | 13516 ft | 290 kts | 9° |
| 2026-05-09 03:12 | 9.36808 | 100.27629 | 13455 ft | 290 kts | 9° |
| 2026-05-09 03:12 | 9.38816 | 100.27856 | 13391 ft | 290 kts | 9° |
| 2026-05-09 03:12 | 9.40822 | 100.28080 | 13326 ft | 290 kts | 9° |
| 2026-05-09 03:13 | 9.44827 | 100.28532 | 12994 ft | 289 kts | 9° |
| 2026-05-09 03:13 | 9.46825 | 100.28763 | 12656 ft | 288 kts | 9° |
| 2026-05-09 03:13 | 9.48818 | 100.28994 | 12307 ft | 288 kts | 9° |
| 2026-05-09 03:14 | 9.50810 | 100.29225 | 11956 ft | 288 kts | 9° |
| 2026-05-09 03:14 | 9.52804 | 100.29459 | 11593 ft | 289 kts | 9° |
| 2026-05-09 03:14 | 9.54803 | 100.29694 | 11232 ft | 289 kts | 9° |
| 2026-05-09 03:14 | 9.56775 | 100.29911 | 10864 ft | 290 kts | 6° |
| 2026-05-09 03:15 | 9.58828 | 100.29935 | 10195 ft | 302 kts | 2° |
| 2026-05-09 03:15 | 9.60957 | 100.29935 | 9560 ft | 304 kts | 2° |
| 2026-05-09 03:15 | 9.63058 | 100.29930 | 8870 ft | 300 kts | 2° |
| 2026-05-09 03:15 | 9.65132 | 100.29927 | 8187 ft | 297 kts | 2° |
| 2026-05-09 03:16 | 9.67161 | 100.29926 | 7684 ft | 288 kts | 2° |
| 2026-05-09 03:16 | 9.69132 | 100.29923 | 7236 ft | 277 kts | 2° |
| 2026-05-09 03:16 | 9.71034 | 100.29576 | 6786 ft | 283 kts | 338° |
| 2026-05-09 03:16 | 9.72603 | 100.28368 | 6330 ft | 288 kts | 308° |
| 2026-05-09 03:17 | 9.73435 | 100.26540 | 5829 ft | 289 kts | 278° |
| 2026-05-09 03:17 | 9.73524 | 100.24512 | 5347 ft | 289 kts | 268° |
| 2026-05-09 03:17 | 9.73520 | 100.22471 | 4859 ft | 290 kts | 268° |
| 2026-05-09 03:17 | 9.73511 | 100.20421 | 4390 ft | 291 kts | 268° |
| 2026-05-09 03:18 | 9.73503 | 100.18376 | 3892 ft | 291 kts | 269° |
| 2026-05-09 03:18 | 9.73500 | 100.16356 | 3394 ft | 283 kts | 269° |
| 2026-05-09 03:18 | 9.73496 | 100.14380 | 3076 ft | 280 kts | 269° |
| 2026-05-09 03:18 | 9.73297 | 100.12448 | 2999 ft | 279 kts | 251° |
| 2026-05-09 03:19 | 9.72446 | 100.10760 | 3002 ft | 259 kts | 227° |
| 2026-05-09 03:19 | 9.71181 | 100.09599 | 3002 ft | 235 kts | 207° |
| 2026-05-09 03:19 | 9.69772 | 100.08902 | 3003 ft | 219 kts | 200° |
| 2026-05-09 03:19 | 9.68429 | 100.08284 | 3002 ft | 206 kts | 200° |
| 2026-05-09 03:20 | 9.67156 | 100.07696 | 3007 ft | 197 kts | 200° |
| 2026-05-09 03:20 | 9.65968 | 100.07146 | 3027 ft | 179 kts | 200° |
| 2026-05-09 03:20 | 9.64887 | 100.06648 | 2994 ft | 161 kts | 199° |
| 2026-05-09 03:20 | 9.63917 | 100.06201 | 3019 ft | 149 kts | 199° |
| 2026-05-09 03:21 | 9.62992 | 100.05783 | 3006 ft | 144 kts | 195° |
| 2026-05-09 03:21 | 9.62037 | 100.05544 | 2763 ft | 140 kts | 184° |
| 2026-05-09 03:21 | 9.61177 | 100.05096 | 2455 ft | 145 kts | 221° |
| 2026-05-09 03:21 | 9.60704 | 100.04194 | 2144 ft | 149 kts | 260° |
| 2026-05-09 03:22 | 9.60683 | 100.03149 | 1924 ft | 149 kts | 270° |
| 2026-05-09 03:22 | 9.60799 | 100.02105 | 1659 ft | 150 kts | 289° |
| 2026-05-09 03:22 | 9.61503 | 100.01405 | 1521 ft | 145 kts | 348° |
| 2026-05-09 03:22 | 9.62463 | 100.01522 | 1600 ft | 144 kts | 31° |
| 2026-05-09 03:23 | 9.63360 | 100.01990 | 1562 ft | 144 kts | 39° |
| 2026-05-09 03:23 | 9.63989 | 100.02724 | 1494 ft | 136 kts | 69° |
| 2026-05-09 03:23 | 9.64187 | 100.03627 | 1436 ft | 130 kts | 95° |
| 2026-05-09 03:23 | 9.63954 | 100.04501 | 1412 ft | 129 kts | 122° |
| 2026-05-09 03:24 | 9.63355 | 100.05169 | 1412 ft | 130 kts | 146° |
| 2026-05-09 03:24 | 9.62513 | 100.05490 | 1407 ft | 131 kts | 172° |
| 2026-05-09 03:24 | 9.61594 | 100.05576 | 1302 ft | 133 kts | 172° |
| 2026-05-09 03:24 | 9.60683 | 100.05664 | 1117 ft | 132 kts | 172° |
| 2026-05-09 03:25 | 9.59766 | 100.05755 | 960 ft | 133 kts | 173° |
| 2026-05-09 03:25 | 9.58850 | 100.05846 | 773 ft | 132 kts | 173° |
| 2026-05-09 03:25 | 9.57936 | 100.05941 | 523 ft | 134 kts | 173° |
| 2026-05-09 03:25 | 9.57009 | 100.06036 | 302 ft | 135 kts | 172° |
| 2026-05-09 03:26 | 9.56074 | 100.06116 | 153 ft | 133 kts | 171° |
| 2026-05-09 03:26 | 9.55165 | 100.06207 | 49 ft | 125 kts | 172° |
| 2026-05-09 03:26 | 9.54509 | 100.06273 | 50 ft | 53 kts | 174° |
| 2026-05-09 03:26 | 9.54310 | 100.06284 | 53 ft | 13 kts | 193° |
| 2026-05-09 03:27 | 9.54281 | 100.06298 | 51 ft | 7 kts | 22° |
| 2026-05-09 03:27 | 9.54360 | 100.06290 | 53 ft | 17 kts | 353° |
| 2026-05-09 03:27 | 9.54503 | 100.06275 | 53 ft | 22 kts | 355° |
| 2026-05-09 03:27 | 9.54656 | 100.06262 | 50 ft | 23 kts | 355° |
| 2026-05-09 03:28 | 9.54817 | 100.06243 | 53 ft | 25 kts | 354° |
| 2026-05-09 03:28 | 9.54970 | 100.06230 | 53 ft | 15 kts | 356° |
| 2026-05-09 03:28 | 9.55016 | 100.06266 | 53 ft | 8 kts | 91° |
| 2026-05-09 03:28 | 9.55030 | 100.06308 | 50 ft | 5 kts | 25° |
| 2026-05-09 03:29 | 9.55066 | 100.06306 | 53 ft | 5 kts | 353° |
| 2026-05-09 03:29 | 9.55080 | 100.06321 | 53 ft | 3 kts | 77° |
| 2026-05-09 03:29 | 9.55081 | 100.06336 | 51 ft | 2 kts | 83° |
| 2026-05-09 03:29 | 9.55083 | 100.06346 | 53 ft | 0 kts | 83° |